createdAt,value
2023-10-09T00:00:16.980Z,79.000000
2023-10-09T00:05:16.921Z,80.000000
2023-10-09T00:10:25.213Z,80.000000
2023-10-09T00:15:18.920Z,80.000000
2023-10-09T00:20:19.015Z,80.000000
2023-10-09T00:25:18.947Z,80.000000
2023-10-09T00:30:25.213Z,80.000000
2023-10-09T00:35:25.176Z,80.000000
2023-10-09T00:40:18.915Z,80.000000
2023-10-09T00:45:18.977Z,80.000000
2023-10-09T00:50:25.288Z,81.000000
2023-10-09T00:55:17.130Z,80.000000
2023-10-09T01:00:17.187Z,81.000000
2023-10-09T01:05:25.394Z,82.000000
2023-10-09T01:10:25.208Z,82.000000
2023-10-09T01:15:25.253Z,82.000000
2023-10-09T01:20:25.181Z,82.000000
2023-10-09T01:25:25.272Z,82.000000
2023-10-09T01:30:25.234Z,82.000000
2023-10-09T01:35:19.056Z,82.000000
2023-10-09T01:40:25.281Z,82.000000
2023-10-09T01:45:17.445Z,82.000000
2023-10-09T01:50:17.015Z,83.000000
2023-10-09T01:55:19.081Z,82.000000
2023-10-09T02:00:19.155Z,83.000000
2023-10-09T02:05:25.294Z,84.000000
2023-10-09T02:10:19.066Z,83.000000
2023-10-09T02:15:25.294Z,83.000000
2023-10-09T02:20:19.117Z,84.000000
2023-10-09T02:25:25.296Z,84.000000
2023-10-09T02:30:25.396Z,85.000000
2023-10-09T02:35:25.299Z,85.000000
2023-10-09T02:40:17.133Z,86.000000
2023-10-09T02:45:17.274Z,86.000000
2023-10-09T02:50:25.657Z,86.000000
2023-10-09T02:55:25.319Z,86.000000
2023-10-09T03:00:25.420Z,87.000000
2023-10-09T03:05:19.173Z,87.000000
2023-10-09T03:10:25.428Z,87.000000
2023-10-09T03:15:25.453Z,87.000000
2023-10-09T03:20:25.319Z,87.000000
2023-10-09T03:25:19.220Z,87.000000
2023-10-09T03:30:19.138Z,87.000000
2023-10-09T03:35:17.388Z,87.000000
2023-10-09T03:40:19.046Z,87.000000
2023-10-09T03:45:19.308Z,88.000000
2023-10-09T03:50:25.506Z,88.000000
2023-10-09T03:55:25.546Z,87.000000
2023-10-09T04:00:18.482Z,87.000000
2023-10-09T04:05:18.426Z,88.000000
2023-10-09T04:10:24.654Z,88.000000
2023-10-09T04:15:24.811Z,89.000000
2023-10-09T04:20:18.527Z,89.000000
2023-10-09T04:25:18.472Z,89.000000
2023-10-09T04:30:24.830Z,89.000000
2023-10-09T04:35:24.707Z,89.000000
2023-10-09T04:40:16.572Z,89.000000
2023-10-09T04:45:16.513Z,89.000000
2023-10-09T04:50:24.654Z,89.000000
2023-10-09T04:55:24.643Z,89.000000
2023-10-09T05:00:24.973Z,89.000000
2023-10-09T05:05:24.693Z,90.000000
2023-10-09T05:10:24.705Z,91.000000
2023-10-09T05:15:18.593Z,91.000000
2023-10-09T05:20:18.615Z,91.000000
2023-10-09T05:25:24.807Z,92.000000
2023-10-09T05:30:24.882Z,91.000000
2023-10-09T05:35:16.880Z,91.000000
2023-10-09T05:40:16.689Z,90.000000
2023-10-09T05:45:24.909Z,90.000000
2023-10-09T05:50:24.850Z,90.000000
2023-10-09T05:55:18.581Z,91.000000
2023-10-09T06:00:24.922Z,91.000000
2023-10-09T06:05:24.855Z,91.000000
2023-10-09T06:10:18.940Z,91.000000
2023-10-09T06:15:18.638Z,91.000000
2023-10-09T06:20:18.692Z,91.000000
2023-10-09T06:25:24.850Z,92.000000
2023-10-09T06:30:16.784Z,92.000000
2023-10-09T06:35:18.761Z,93.000000
2023-10-09T06:40:18.737Z,93.000000
2023-10-09T06:45:18.675Z,93.000000
2023-10-09T06:50:24.941Z,92.000000
2023-10-09T06:55:25.159Z,93.000000
2023-10-09T07:00:24.975Z,92.000000
2023-10-09T07:05:19.136Z,92.000000
2023-10-09T07:10:25.038Z,92.000000
2023-10-09T07:15:25.083Z,92.000000
2023-10-09T07:20:16.939Z,93.000000
2023-10-09T07:25:16.912Z,93.000000
2023-10-09T07:30:25.006Z,93.000000
2023-10-09T07:35:18.746Z,93.000000
2023-10-09T07:40:25.240Z,93.000000
2023-10-09T07:45:25.165Z,92.000000
2023-10-09T07:50:18.731Z,92.000000
2023-10-09T07:55:18.835Z,92.000000
2023-10-09T08:00:18.883Z,92.000000
2023-10-09T08:05:25.074Z,92.000000
2023-10-09T08:10:24.955Z,92.000000
2023-10-09T08:15:16.880Z,92.000000
2023-10-09T08:20:16.921Z,92.000000
2023-10-09T08:25:25.159Z,91.000000
2023-10-09T08:30:25.142Z,91.000000
2023-10-09T08:35:25.193Z,91.000000
2023-10-09T08:40:18.873Z,91.000000
2023-10-09T08:45:25.415Z,91.000000
2023-10-09T08:50:25.146Z,91.000000
2023-10-09T08:55:19.112Z,92.000000
2023-10-09T09:00:25.228Z,92.000000
2023-10-09T09:05:25.280Z,92.000000
2023-10-09T09:10:16.962Z,92.000000
2023-10-09T09:15:25.314Z,92.000000
2023-10-09T09:20:25.343Z,92.000000
2023-10-09T09:25:18.942Z,93.000000
2023-10-09T09:30:25.269Z,93.000000
2023-10-09T09:35:19.040Z,93.000000
2023-10-09T09:40:25.118Z,93.000000
2023-10-09T09:45:25.203Z,93.000000
2023-10-09T09:50:25.262Z,92.000000
2023-10-09T09:55:25.412Z,93.000000
2023-10-09T10:00:17.125Z,93.000000
2023-10-09T10:05:17.126Z,94.000000
2023-10-09T10:10:19.120Z,94.000000
2023-10-09T10:15:26.165Z,94.000000
2023-10-09T10:20:25.262Z,94.000000
2023-10-09T10:25:25.274Z,94.000000
2023-10-09T10:30:25.399Z,94.000000
2023-10-09T10:35:25.266Z,94.000000
2023-10-09T10:40:25.325Z,94.000000
2023-10-09T10:45:25.432Z,94.000000
2023-10-09T10:50:19.129Z,94.000000
2023-10-09T10:55:17.252Z,94.000000
2023-10-09T11:00:17.052Z,94.000000
2023-10-09T11:05:25.526Z,94.000000
2023-10-09T11:10:19.169Z,94.000000
2023-10-09T11:15:19.167Z,94.000000
2023-10-09T11:20:19.301Z,94.000000
2023-10-09T11:25:19.170Z,94.000000
2023-10-09T11:30:19.118Z,94.000000
2023-10-09T11:35:25.450Z,94.000000
2023-10-09T11:40:25.439Z,94.000000
2023-10-09T11:45:19.208Z,95.000000
2023-10-09T11:50:17.299Z,95.000000
2023-10-09T11:55:19.234Z,95.000000
2023-10-09T12:00:25.734Z,95.000000
2023-10-09T12:05:19.293Z,95.000000
2023-10-09T12:10:25.525Z,95.000000
2023-10-09T12:15:25.382Z,95.000000
2023-10-09T12:20:19.293Z,95.000000
2023-10-09T12:25:25.552Z,95.000000
2023-10-09T12:30:19.321Z,95.000000
2023-10-09T12:35:17.299Z,95.000000
2023-10-09T12:40:17.381Z,95.000000
2023-10-09T12:45:17.377Z,94.000000
2023-10-09T12:50:19.483Z,93.000000
2023-10-09T12:55:25.611Z,92.000000
2023-10-09T13:00:25.557Z,91.000000
2023-10-09T13:05:25.565Z,90.000000
2023-10-09T13:10:25.606Z,89.000000
2023-10-09T13:15:25.639Z,89.000000
2023-10-09T13:20:25.739Z,87.000000
2023-10-09T13:25:35.426Z,86.000000
2023-10-09T13:30:25.578Z,87.000000
2023-10-09T13:35:17.521Z,83.000000
2023-10-09T13:40:17.418Z,82.000000
2023-10-09T13:45:25.637Z,80.000000
2023-10-09T13:50:19.496Z,78.000000
2023-10-09T13:55:19.491Z,78.000000
2023-10-09T14:00:25.670Z,76.000000
2023-10-09T14:05:19.551Z,76.000000
2023-10-09T14:10:25.727Z,76.000000
2023-10-09T14:15:19.525Z,73.000000
2023-10-09T14:20:25.669Z,73.000000
2023-10-09T14:25:23.837Z,73.000000
2023-10-09T14:30:17.502Z,73.000000
2023-10-09T14:35:23.903Z,72.000000
2023-10-09T14:40:23.935Z,71.000000
2023-10-09T14:45:23.802Z,73.000000
2023-10-09T14:50:23.974Z,71.000000
2023-10-09T14:55:17.559Z,72.000000
2023-10-09T15:00:17.524Z,73.000000
2023-10-09T15:05:15.558Z,71.000000
2023-10-09T15:10:15.633Z,70.000000
2023-10-09T15:15:23.749Z,67.000000
2023-10-09T15:20:23.911Z,67.000000
2023-10-09T15:25:23.795Z,68.000000
2023-10-09T15:30:17.588Z,67.000000
2023-10-09T15:35:23.945Z,64.000000
2023-10-09T15:40:17.579Z,65.000000
2023-10-09T15:45:23.970Z,66.000000
2023-10-09T15:50:23.907Z,63.000000
2023-10-09T15:55:23.823Z,62.000000
2023-10-09T16:00:15.631Z,61.000000
2023-10-09T16:05:15.724Z,59.000000
2023-10-09T16:10:24.042Z,59.000000
2023-10-09T16:15:17.645Z,60.000000
2023-10-09T16:20:23.976Z,61.000000
2023-10-09T16:25:17.646Z,62.000000
2023-10-09T16:30:17.658Z,61.000000
2023-10-09T16:35:24.089Z,62.000000
2023-10-09T16:40:24.020Z,62.000000
2023-10-09T16:45:24.016Z,62.000000
2023-10-09T16:50:15.794Z,64.000000
2023-10-09T16:55:15.763Z,64.000000
2023-10-09T17:00:17.799Z,64.000000
2023-10-09T17:05:24.086Z,62.000000
2023-10-09T17:10:17.660Z,61.000000
2023-10-09T17:15:23.886Z,59.000000
2023-10-09T17:20:24.062Z,61.000000
2023-10-09T17:25:23.957Z,62.000000
2023-10-09T17:30:23.984Z,59.000000
2023-10-09T17:35:17.806Z,60.000000
2023-10-09T17:40:23.983Z,62.000000
2023-10-09T17:45:15.867Z,60.000000
2023-10-09T17:50:15.909Z,63.000000
2023-10-09T17:55:17.975Z,62.000000
2023-10-09T18:00:24.438Z,62.000000
2023-10-09T18:05:17.859Z,59.000000
2023-10-09T18:10:24.008Z,58.000000
2023-10-09T18:15:24.209Z,57.000000
2023-10-09T18:20:24.038Z,55.000000
2023-10-09T18:25:24.234Z,55.000000
2023-10-09T18:30:17.860Z,54.000000
2023-10-09T18:35:17.915Z,55.000000
2023-10-09T18:40:15.988Z,57.000000
2023-10-09T18:45:24.249Z,55.000000
2023-10-09T18:50:17.886Z,55.000000
2023-10-09T18:55:17.836Z,57.000000
2023-10-09T19:00:17.995Z,54.000000
2023-10-09T19:05:24.162Z,54.000000
2023-10-09T19:10:19.866Z,54.000000
2023-10-09T19:15:24.188Z,55.000000
2023-10-09T19:20:18.231Z,52.000000
2023-10-09T19:25:17.933Z,53.000000
2023-10-09T19:30:16.051Z,53.000000
2023-10-09T19:35:16.045Z,54.000000
2023-10-09T19:40:17.967Z,55.000000
2023-10-09T19:45:24.211Z,54.000000
2023-10-09T19:50:24.456Z,51.000000
2023-10-09T19:55:24.229Z,52.000000
2023-10-09T20:00:17.969Z,52.000000
2023-10-09T20:05:24.545Z,52.000000
2023-10-09T20:10:17.979Z,54.000000
2023-10-09T20:15:24.214Z,51.000000
2023-10-09T20:20:18.142Z,54.000000
2023-10-09T20:25:16.027Z,53.000000
2023-10-09T20:30:16.021Z,52.000000
2023-10-09T20:35:18.188Z,53.000000
2023-10-09T20:40:24.389Z,52.000000
2023-10-09T20:45:24.278Z,53.000000
2023-10-09T20:50:24.337Z,53.000000
2023-10-09T20:55:18.129Z,56.000000
2023-10-09T21:00:24.209Z,55.000000
2023-10-09T21:05:18.177Z,56.000000
2023-10-09T21:10:18.065Z,57.000000
2023-10-09T21:15:16.133Z,58.000000
2023-10-09T21:20:16.136Z,58.000000
2023-10-09T21:25:24.393Z,58.000000
2023-10-09T21:30:24.850Z,60.000000
2023-10-09T21:35:18.217Z,59.000000
2023-10-09T21:40:18.076Z,62.000000
2023-10-09T21:45:18.033Z,65.000000
2023-10-09T21:50:18.202Z,68.000000
2023-10-09T21:55:24.429Z,69.000000
2023-10-09T22:00:18.137Z,68.000000
2023-10-09T22:05:24.402Z,68.000000
2023-10-09T22:10:16.143Z,70.000000
2023-10-09T22:15:16.095Z,69.000000
2023-10-09T22:20:24.514Z,71.000000
2023-10-09T22:25:18.132Z,74.000000
2023-10-09T22:30:18.141Z,75.000000
2023-10-09T22:35:24.361Z,76.000000
2023-10-09T22:40:24.406Z,77.000000
2023-10-09T22:45:18.146Z,79.000000
2023-10-09T22:50:18.376Z,80.000000
2023-10-09T22:55:24.837Z,81.000000
2023-10-09T23:00:18.134Z,82.000000
2023-10-09T23:05:16.313Z,82.000000
2023-10-09T23:10:24.412Z,82.000000
2023-10-09T23:15:18.223Z,82.000000
2023-10-09T23:20:18.352Z,83.000000
2023-10-09T23:25:24.486Z,83.000000
2023-10-09T23:30:24.398Z,83.000000
2023-10-09T23:35:18.310Z,83.000000
2023-10-09T23:40:24.504Z,84.000000
2023-10-09T23:45:18.304Z,84.000000
2023-10-09T23:50:24.417Z,84.000000
2023-10-09T23:55:16.367Z,85.000000
